createdAt,value
2022-07-27T00:01:33.312Z,60.64
2022-07-27T00:04:01.480Z,60.63
2022-07-27T00:06:29.671Z,60.72
2022-07-27T00:08:57.718Z,60.65
2022-07-27T00:11:27.266Z,61.50
2022-07-27T00:13:55.421Z,62.12
2022-07-27T00:16:23.682Z,62.81
2022-07-27T00:18:51.871Z,63.34
2022-07-27T00:21:20.053Z,64.55
2022-07-27T00:23:48.854Z,65.19
2022-07-27T00:26:17.036Z,66.69
2022-07-27T00:28:46.600Z,67.28
2022-07-27T00:31:14.840Z,67.93
2022-07-27T00:33:43.094Z,67.42
2022-07-27T00:36:11.440Z,67.22
2022-07-27T00:38:40.542Z,66.84
2022-07-27T00:41:08.835Z,67.00
2022-07-27T00:43:54.833Z,67.72
2022-07-27T00:46:23.566Z,68.33
2022-07-27T00:48:52.184Z,68.76
2022-07-27T00:51:23.352Z,69.14
2022-07-27T00:53:53.789Z,69.44
2022-07-27T00:56:23.029Z,70.08
2022-07-27T00:58:54.595Z,70.59
2022-07-27T01:01:23.060Z,70.98
2022-07-27T01:03:52.646Z,71.61
2022-07-27T01:06:24.884Z,71.48
2022-07-27T01:09:17.207Z,71.08
2022-07-27T01:11:45.554Z,71.20
2022-07-27T01:14:17.277Z,71.69
2022-07-27T01:16:45.885Z,71.05
2022-07-27T01:19:16.228Z,71.45
2022-07-27T01:21:46.499Z,71.26
2022-07-27T01:24:15.212Z,70.75
2022-07-27T01:26:43.415Z,70.62
2022-07-27T01:29:12.441Z,70.67
2022-07-27T01:31:40.822Z,70.96
2022-07-27T01:34:09.241Z,70.96
2022-07-27T01:36:38.460Z,71.75
2022-07-27T01:39:08.279Z,71.46
2022-07-27T01:41:36.439Z,71.54
2022-07-27T01:44:04.617Z,71.38
2022-07-27T01:46:32.898Z,71.78
2022-07-27T01:49:01.191Z,72.33
2022-07-27T01:51:29.765Z,72.55
2022-07-27T01:53:58.048Z,72.02
2022-07-27T01:56:27.603Z,72.55
2022-07-27T01:58:56.326Z,73.37
2022-07-27T02:01:24.544Z,73.18
2022-07-27T02:03:52.854Z,73.62
2022-07-27T02:06:21.070Z,73.58
2022-07-27T02:08:49.427Z,73.11
2022-07-27T02:11:35.039Z,73.43
2022-07-27T02:14:04.678Z,75.04
2022-07-27T02:16:32.960Z,73.54
2022-07-27T02:19:01.231Z,74.03
2022-07-27T02:21:33.542Z,73.95
2022-07-27T02:24:01.824Z,74.17
2022-07-27T02:26:29.939Z,74.43
2022-07-27T02:28:58.066Z,74.51
2022-07-27T02:31:28.402Z,74.88
2022-07-27T02:34:01.867Z,75.14
2022-07-27T02:36:30.332Z,75.31
2022-07-27T02:38:59.146Z,75.57
2022-07-27T02:41:27.629Z,76.02
2022-07-27T02:43:55.813Z,76.21
2022-07-27T02:46:24.091Z,76.12
2022-07-27T02:48:54.722Z,75.48
2022-07-27T02:51:22.896Z,76.07
2022-07-27T02:53:51.425Z,76.42
2022-07-27T02:56:19.641Z,76.26
2022-07-27T02:58:55.326Z,76.29
2022-07-27T03:01:25.195Z,76.74
2022-07-27T03:03:54.841Z,77.12
2022-07-27T03:06:23.015Z,77.66
2022-07-27T03:08:51.528Z,77.07
2022-07-27T03:11:19.653Z,77.52
2022-07-27T03:13:47.731Z,76.88
2022-07-27T03:16:16.002Z,77.02
2022-07-27T03:18:44.237Z,76.98
2022-07-27T03:21:14.515Z,77.09
2022-07-27T03:23:42.681Z,76.31
2022-07-27T03:26:10.862Z,76.71
2022-07-27T03:28:38.928Z,77.26
2022-07-27T03:31:07.203Z,76.83
2022-07-27T03:33:35.947Z,75.85
2022-07-27T03:36:04.169Z,75.51
2022-07-27T03:38:33.781Z,76.54
2022-07-27T03:41:02.515Z,75.11
2022-07-27T03:43:30.619Z,74.43
2022-07-27T03:45:58.969Z,74.59
2022-07-27T03:48:27.333Z,74.88
2022-07-27T03:50:55.557Z,75.10
2022-07-27T03:53:23.834Z,74.69
2022-07-27T03:55:53.495Z,74.48
2022-07-27T03:58:23.471Z,74.23
2022-07-27T04:00:52.058Z,74.50
2022-07-27T04:03:20.270Z,73.98
2022-07-27T04:05:48.572Z,74.36
2022-07-27T04:08:17.583Z,74.48
2022-07-27T04:10:45.959Z,75.53
2022-07-27T04:13:16.106Z,73.80
2022-07-27T04:15:45.996Z,72.94
2022-07-27T04:18:14.277Z,71.44
2022-07-27T04:20:42.447Z,70.71
2022-07-27T04:23:10.632Z,70.44
2022-07-27T04:25:38.683Z,69.91
2022-07-27T04:28:07.330Z,68.61
2022-07-27T04:30:37.629Z,68.64
2022-07-27T04:33:05.981Z,68.45
2022-07-27T04:35:34.038Z,66.73
2022-07-27T04:38:02.145Z,66.38
2022-07-27T04:40:33.963Z,65.51
2022-07-27T04:43:02.982Z,64.93
2022-07-27T04:45:31.536Z,65.22
2022-07-27T04:48:01.163Z,65.36
2022-07-27T04:50:29.347Z,65.53
2022-07-27T04:52:57.484Z,64.90
2022-07-27T04:55:25.868Z,64.61
2022-07-27T04:57:53.986Z,64.61
2022-07-27T05:00:22.135Z,64.13
2022-07-27T05:02:50.278Z,63.82
2022-07-27T05:05:19.912Z,63.90
2022-07-27T05:07:47.992Z,63.46
2022-07-27T05:10:20.065Z,62.64
2022-07-27T05:12:50.298Z,62.30
2022-07-27T05:15:19.073Z,63.14
2022-07-27T05:17:47.355Z,61.57
2022-07-27T05:20:17.606Z,62.38
2022-07-27T05:22:47.306Z,61.05
2022-07-27T05:25:16.454Z,60.48
2022-07-27T05:27:53.730Z,58.12
2022-07-27T05:30:24.037Z,56.90
2022-07-27T05:32:52.137Z,57.16
2022-07-27T05:35:20.421Z,56.57
2022-07-27T05:37:51.321Z,56.66
2022-07-27T05:40:19.505Z,55.70
2022-07-27T05:42:48.103Z,56.01
2022-07-27T05:45:16.654Z,56.40
2022-07-27T05:47:44.841Z,56.09
2022-07-27T05:50:13.574Z,56.02
2022-07-27T05:52:41.680Z,56.96
2022-07-27T05:55:12.240Z,56.20
2022-07-27T05:57:42.271Z,55.96
2022-07-27T06:00:12.826Z,55.67
2022-07-27T06:02:41.651Z,55.84
2022-07-27T06:05:15.491Z,55.43
2022-07-27T06:08:03.717Z,55.22
2022-07-27T06:10:35.996Z,55.77
2022-07-27T06:13:06.309Z,56.15
2022-07-27T06:15:34.807Z,56.21
2022-07-27T06:18:03.898Z,56.48
2022-07-27T06:20:32.557Z,56.16
2022-07-27T06:23:07.913Z,55.98
2022-07-27T06:25:38.253Z,55.90
2022-07-27T06:28:08.116Z,55.09
2022-07-27T06:30:36.757Z,55.22
2022-07-27T06:33:06.067Z,53.67
2022-07-27T06:35:37.789Z,54.04
2022-07-27T06:38:07.051Z,54.13
2022-07-27T06:40:35.915Z,54.20
2022-07-27T06:43:05.552Z,53.65
2022-07-27T06:45:33.802Z,53.76
2022-07-27T06:48:01.944Z,54.01
2022-07-27T06:50:30.522Z,54.09
2022-07-27T06:52:58.791Z,54.66
2022-07-27T06:55:27.064Z,53.58
2022-07-27T06:57:55.353Z,53.00
2022-07-27T07:00:25.602Z,53.17
2022-07-27T07:02:55.765Z,52.45
2022-07-27T07:05:24.326Z,51.52
2022-07-27T07:07:52.737Z,51.33
2022-07-27T07:10:23.749Z,51.57
2022-07-27T07:12:56.087Z,51.15
2022-07-27T07:15:27.342Z,51.34
2022-07-27T07:17:55.829Z,50.67
2022-07-27T07:20:24.788Z,50.61
2022-07-27T07:22:53.210Z,48.49
2022-07-27T07:25:21.726Z,48.68
2022-07-27T07:27:50.635Z,48.96
2022-07-27T07:30:19.065Z,48.61
2022-07-27T07:32:48.848Z,47.40
2022-07-27T07:35:18.290Z,47.02
2022-07-27T07:37:49.760Z,47.08
2022-07-27T07:43:07.801Z,45.56
2022-07-27T07:45:39.058Z,45.39
2022-07-27T07:48:22.097Z,45.22
2022-07-27T07:50:53.117Z,43.84
2022-07-27T07:53:23.120Z,43.47
2022-07-27T07:55:52.070Z,42.24
2022-07-27T07:58:20.348Z,42.47
2022-07-27T08:00:48.986Z,42.02
2022-07-27T08:03:17.328Z,41.83
2022-07-27T08:05:47.010Z,41.59
2022-07-27T08:08:15.455Z,41.93
2022-07-27T08:10:43.812Z,41.87
2022-07-27T08:13:12.003Z,41.41
2022-07-27T08:15:40.157Z,41.81
2022-07-27T08:18:09.680Z,40.01
2022-07-27T08:20:38.218Z,40.70
2022-07-27T08:23:07.779Z,40.29
2022-07-27T08:25:36.918Z,39.72
2022-07-27T08:28:07.482Z,39.89
2022-07-27T08:30:35.919Z,39.05
2022-07-27T08:33:06.467Z,38.23
2022-07-27T08:35:35.814Z,37.94
2022-07-27T08:38:07.836Z,37.90
2022-07-27T08:40:41.857Z,37.70
2022-07-27T08:43:12.209Z,37.20
2022-07-27T08:45:44.736Z,36.06
2022-07-27T08:48:15.765Z,36.04
2022-07-27T08:50:44.391Z,35.72
2022-07-27T08:53:17.842Z,35.79
2022-07-27T08:55:48.710Z,35.62
2022-07-27T08:58:17.846Z,36.18
2022-07-27T09:00:48.254Z,35.49
2022-07-27T09:03:20.054Z,35.61
2022-07-27T09:05:51.181Z,35.95
2022-07-27T09:08:24.462Z,34.57
2022-07-27T09:10:55.779Z,34.76
2022-07-27T09:13:26.812Z,34.06
2022-07-27T09:18:45.819Z,33.95
2022-07-27T09:21:16.957Z,34.52
2022-07-27T09:23:48.532Z,33.68
2022-07-27T09:26:31.850Z,33.22
2022-07-27T09:29:03.230Z,33.21
2022-07-27T09:31:32.479Z,33.04
2022-07-27T09:34:02.913Z,33.15
2022-07-27T09:36:31.915Z,33.44
2022-07-27T09:39:12.893Z,33.49
2022-07-27T09:41:45.869Z,33.55
2022-07-27T09:44:32.369Z,32.28
2022-07-27T09:47:01.300Z,33.03
2022-07-27T09:49:31.981Z,31.48
2022-07-27T09:52:02.302Z,31.20
2022-07-27T09:54:44.855Z,31.79
2022-07-27T09:57:14.523Z,31.91
2022-07-27T09:59:42.897Z,31.70
2022-07-27T10:02:14.646Z,30.78
2022-07-27T10:04:43.270Z,32.05
2022-07-27T10:07:13.859Z,31.36
2022-07-27T10:09:43.343Z,32.05
2022-07-27T10:12:11.850Z,31.43
2022-07-27T10:14:41.457Z,30.78
2022-07-27T10:17:12.974Z,29.96
2022-07-27T10:19:48.099Z,29.71
2022-07-27T10:22:16.391Z,29.40
2022-07-27T10:24:47.678Z,28.65
2022-07-27T10:27:21.705Z,27.43
2022-07-27T10:29:52.577Z,28.56
2022-07-27T10:32:27.927Z,27.87
2022-07-27T10:34:56.228Z,28.33
2022-07-27T10:37:28.719Z,28.50
2022-07-27T10:40:12.815Z,27.97
2022-07-27T10:42:41.482Z,26.81
2022-07-27T10:45:13.260Z,27.19
2022-07-27T10:47:45.136Z,27.61
2022-07-27T10:50:48.779Z,27.24
2022-07-27T10:53:17.596Z,27.10
2022-07-27T10:55:49.683Z,26.69
2022-07-27T10:58:51.699Z,26.21
2022-07-27T11:01:23.898Z,26.43
2022-07-27T11:03:56.306Z,26.41
2022-07-27T11:06:48.126Z,26.98
2022-07-27T11:10:02.612Z,26.59
2022-07-27T11:12:14.161Z,26.18
2022-07-27T11:14:47.558Z,26.36
2022-07-27T11:17:49.495Z,26.06
2022-07-27T11:20:07.217Z,26.75
2022-07-27T11:25:26.728Z,26.66
2022-07-27T11:27:55.077Z,26.50
2022-07-27T11:30:25.159Z,26.51
2022-07-27T11:32:55.624Z,26.16
2022-07-27T11:35:24.247Z,24.92
2022-07-27T11:38:03.688Z,25.03
2022-07-27T11:43:38.318Z,24.80
2022-07-27T11:46:15.827Z,24.26
2022-07-27T11:49:08.658Z,24.66
2022-07-27T11:51:40.145Z,24.88
2022-07-27T11:54:09.836Z,24.70
2022-07-27T11:56:40.039Z,24.49
2022-07-27T11:59:15.416Z,24.24
2022-07-27T12:01:51.090Z,25.07
2022-07-27T12:04:29.101Z,24.89
2022-07-27T12:07:10.762Z,24.14
2022-07-27T12:09:40.740Z,24.03
2022-07-27T12:12:15.132Z,23.33
2022-07-27T12:14:46.388Z,23.52
2022-07-27T12:17:18.516Z,23.36
2022-07-27T12:19:59.546Z,23.93
2022-07-27T12:22:34.727Z,24.57
2022-07-27T12:25:10.035Z,24.18
2022-07-27T12:27:54.538Z,24.00
2022-07-27T12:30:31.388Z,23.96
2022-07-27T12:33:00.957Z,24.26
2022-07-27T12:35:37.384Z,23.25
2022-07-27T12:38:09.971Z,24.00
2022-07-27T12:40:46.948Z,24.17
2022-07-27T12:43:18.710Z,24.12
2022-07-27T12:45:48.780Z,24.16
2022-07-27T12:48:18.832Z,23.88
2022-07-27T12:50:50.190Z,23.91
2022-07-27T12:53:18.827Z,23.78
2022-07-27T12:55:47.692Z,24.03
2022-07-27T12:58:17.417Z,22.90
2022-07-27T13:00:45.795Z,23.97
2022-07-27T13:03:15.357Z,24.54
2022-07-27T13:05:44.002Z,24.34
2022-07-27T13:08:16.484Z,24.38
2022-07-27T13:10:46.129Z,24.72
2022-07-27T13:13:15.214Z,24.68
2022-07-27T13:15:43.337Z,24.22
2022-07-27T13:18:11.646Z,23.40
2022-07-27T13:20:40.007Z,24.19
2022-07-27T13:23:09.049Z,24.17
2022-07-27T13:25:43.243Z,24.23
2022-07-27T13:28:11.928Z,23.94
2022-07-27T13:30:40.526Z,23.36
2022-07-27T13:33:08.690Z,23.76
2022-07-27T13:35:37.344Z,23.82
2022-07-27T13:38:05.602Z,23.78
2022-07-27T13:40:33.790Z,24.06
2022-07-27T13:43:03.393Z,23.50
2022-07-27T13:45:43.140Z,23.80
2022-07-27T13:48:13.254Z,23.87
2022-07-27T13:50:42.303Z,23.59
2022-07-27T13:53:14.940Z,23.66
2022-07-27T13:55:44.265Z,23.76
2022-07-27T13:58:14.048Z,24.38
2022-07-27T14:00:42.491Z,24.16
2022-07-27T14:03:11.349Z,23.82
2022-07-27T14:05:41.902Z,24.37
2022-07-27T14:08:17.773Z,25.01
2022-07-27T14:10:46.637Z,24.33
2022-07-27T14:13:17.464Z,24.02
2022-07-27T14:15:54.473Z,24.02
2022-07-27T14:18:28.590Z,24.87
2022-07-27T14:20:58.559Z,24.56
2022-07-27T14:23:31.201Z,24.15
2022-07-27T14:26:02.247Z,23.55
2022-07-27T14:28:36.425Z,23.24
2022-07-27T14:31:07.111Z,25.13
2022-07-27T14:33:37.000Z,24.26
2022-07-27T14:36:06.553Z,23.81
2022-07-27T14:38:34.821Z,23.87
2022-07-27T14:41:03.400Z,24.26
2022-07-27T14:43:33.164Z,24.12
2022-07-27T14:46:02.295Z,23.87
2022-07-27T14:49:03.346Z,25.05
2022-07-27T14:51:18.777Z,23.88
2022-07-27T14:53:47.355Z,24.27
2022-07-27T14:56:18.273Z,24.10
2022-07-27T14:58:47.839Z,25.24
2022-07-27T15:01:17.211Z,24.78
2022-07-27T15:03:46.260Z,24.07
2022-07-27T15:06:14.516Z,24.67
2022-07-27T15:08:42.669Z,25.14
2022-07-27T15:11:11.109Z,25.19
2022-07-27T15:13:39.910Z,25.06
2022-07-27T15:16:09.638Z,24.77
2022-07-27T15:18:39.073Z,24.90
2022-07-27T15:21:13.483Z,24.41
2022-07-27T15:23:43.407Z,23.94
2022-07-27T15:26:12.627Z,24.79
2022-07-27T15:28:41.358Z,24.72
2022-07-27T15:31:13.370Z,24.75
2022-07-27T15:33:42.042Z,24.81
2022-07-27T15:36:31.848Z,24.86
2022-07-27T15:38:59.954Z,24.01
2022-07-27T15:41:28.022Z,24.01
2022-07-27T15:43:57.605Z,24.33
2022-07-27T15:46:28.155Z,24.85
2022-07-27T15:48:56.737Z,24.60
2022-07-27T15:51:25.063Z,25.78
2022-07-27T15:53:53.785Z,24.85
2022-07-27T15:56:21.996Z,25.57
2022-07-27T15:58:50.551Z,25.72
2022-07-27T16:01:20.974Z,24.76
2022-07-27T16:03:52.095Z,25.62
2022-07-27T16:06:20.655Z,25.30
2022-07-27T16:08:49.286Z,25.81
2022-07-27T16:11:18.242Z,26.41
2022-07-27T16:13:48.525Z,26.51
2022-07-27T16:16:26.474Z,25.68
2022-07-27T16:18:57.957Z,26.16
2022-07-27T16:21:26.829Z,26.51
2022-07-27T16:23:57.149Z,26.87
2022-07-27T16:26:26.010Z,25.74
2022-07-27T16:28:57.131Z,26.24
2022-07-27T16:31:25.299Z,25.53
2022-07-27T16:33:55.009Z,25.29
2022-07-27T16:36:26.446Z,25.46
2022-07-27T16:38:54.986Z,25.54
2022-07-27T16:41:23.809Z,25.63
2022-07-27T16:43:52.089Z,26.71
2022-07-27T16:46:20.880Z,26.77
2022-07-27T16:48:49.222Z,27.44
2022-07-27T16:51:17.802Z,27.06
2022-07-27T16:53:49.099Z,27.29
2022-07-27T16:56:17.660Z,27.11
2022-07-27T16:58:45.850Z,27.59
2022-07-27T17:01:22.061Z,27.94
2022-07-27T17:03:54.924Z,28.41
2022-07-27T17:06:23.431Z,28.76
2022-07-27T17:08:53.141Z,28.94
2022-07-27T17:11:22.485Z,29.41
2022-07-27T17:13:59.414Z,29.69
2022-07-27T17:16:28.441Z,29.77
2022-07-27T17:18:57.009Z,29.88
2022-07-27T17:21:25.882Z,30.43
2022-07-27T17:23:55.409Z,30.17
2022-07-27T17:26:24.785Z,30.77
2022-07-27T17:28:54.005Z,30.39
2022-07-27T17:31:23.102Z,30.64
2022-07-27T17:33:51.969Z,30.69
2022-07-27T17:36:20.703Z,30.78
2022-07-27T17:38:50.499Z,30.84
2022-07-27T17:41:24.682Z,31.33
2022-07-27T17:43:55.144Z,31.22
2022-07-27T17:46:24.747Z,31.60
2022-07-27T17:48:54.523Z,31.73
2022-07-27T17:51:25.498Z,31.57
2022-07-27T17:53:53.830Z,32.34
2022-07-27T17:56:23.444Z,32.16
2022-07-27T17:58:51.627Z,32.96
2022-07-27T18:01:46.970Z,33.00
2022-07-27T18:04:08.157Z,32.94
2022-07-27T18:06:36.464Z,32.78
2022-07-27T18:09:06.982Z,32.70
2022-07-27T18:11:37.056Z,32.42
2022-07-27T18:14:05.293Z,32.70
2022-07-27T18:16:39.749Z,33.25
2022-07-27T18:19:08.555Z,33.71
2022-07-27T18:21:37.724Z,34.04
2022-07-27T18:24:06.315Z,34.34
2022-07-27T18:26:34.710Z,35.33
2022-07-27T18:29:06.522Z,35.53
2022-07-27T18:31:35.816Z,35.88
2022-07-27T18:34:09.124Z,35.72
2022-07-27T18:36:38.978Z,36.16
2022-07-27T18:39:07.169Z,35.92
2022-07-27T18:41:35.942Z,36.17
2022-07-27T18:44:06.145Z,36.43
2022-07-27T18:46:34.580Z,36.28
2022-07-27T18:49:02.802Z,36.43
2022-07-27T18:51:31.949Z,36.53
2022-07-27T18:54:00.568Z,36.30
2022-07-27T18:56:28.727Z,36.17
2022-07-27T18:58:57.098Z,36.81
2022-07-27T19:01:27.550Z,36.64
2022-07-27T19:03:55.787Z,36.46
2022-07-27T19:06:24.076Z,36.61
2022-07-27T19:08:53.585Z,37.38
2022-07-27T19:11:21.696Z,38.52
2022-07-27T19:13:49.921Z,39.41
2022-07-27T19:16:18.118Z,40.10
2022-07-27T19:18:47.913Z,40.94
2022-07-27T19:21:16.808Z,41.14
2022-07-27T19:23:45.908Z,41.39
2022-07-27T19:26:14.595Z,41.63
2022-07-27T19:28:44.417Z,42.00
2022-07-27T19:31:23.071Z,41.87
2022-07-27T19:33:53.647Z,41.80
2022-07-27T19:36:23.401Z,42.23
2022-07-27T19:38:52.222Z,42.36
2022-07-27T19:41:20.575Z,42.64
2022-07-27T19:43:48.843Z,42.22
2022-07-27T19:46:18.469Z,42.02
2022-07-27T19:48:46.760Z,41.68
2022-07-27T19:51:16.813Z,40.93
2022-07-27T19:53:45.051Z,41.57
2022-07-27T19:56:13.200Z,41.28
2022-07-27T19:58:41.726Z,40.87
2022-07-27T20:01:11.498Z,41.29
2022-07-27T20:03:47.403Z,41.12
2022-07-27T20:06:24.070Z,41.22
2022-07-27T20:08:55.896Z,41.29
2022-07-27T20:11:24.222Z,41.57
2022-07-27T20:13:52.461Z,41.81
2022-07-27T20:16:20.793Z,42.38
2022-07-27T20:18:49.542Z,42.20
2022-07-27T20:21:23.226Z,41.66
2022-07-27T20:23:54.639Z,41.94
2022-07-27T20:26:22.799Z,41.99
2022-07-27T20:28:51.041Z,42.19
2022-07-27T20:31:20.337Z,42.50
2022-07-27T20:33:48.667Z,42.53
2022-07-27T20:36:16.951Z,42.23
2022-07-27T20:38:45.224Z,41.97
2022-07-27T20:41:14.992Z,42.25
2022-07-27T20:43:43.355Z,42.63
2022-07-27T20:46:11.860Z,42.91
2022-07-27T20:48:42.027Z,42.73
2022-07-27T20:51:10.350Z,43.02
2022-07-27T20:53:39.714Z,43.30
2022-07-27T20:56:07.986Z,43.37
2022-07-27T20:58:37.541Z,43.96
2022-07-27T21:01:06.133Z,44.36
2022-07-27T21:03:34.860Z,44.24
2022-07-27T21:06:03.690Z,44.50
2022-07-27T21:08:32.094Z,43.60
2022-07-27T21:11:00.560Z,43.35
2022-07-27T21:13:28.791Z,43.74
2022-07-27T21:15:58.405Z,44.26
2022-07-27T21:18:26.881Z,43.92
2022-07-27T21:20:56.265Z,43.90
2022-07-27T21:23:41.872Z,43.83
2022-07-27T21:26:09.979Z,44.00
2022-07-27T21:28:38.681Z,44.17
2022-07-27T21:31:18.689Z,43.81
2022-07-27T21:33:49.174Z,43.54
2022-07-27T21:36:17.688Z,43.92
2022-07-27T21:38:45.963Z,44.03
2022-07-27T21:41:16.064Z,43.80
2022-07-27T21:43:44.633Z,44.28
2022-07-27T21:46:14.702Z,44.39
2022-07-27T21:48:43.037Z,44.81
2022-07-27T21:51:11.231Z,44.98
2022-07-27T21:53:39.390Z,45.31
2022-07-27T21:56:07.638Z,46.16
2022-07-27T21:58:35.826Z,45.89
2022-07-27T22:01:04.176Z,46.68
2022-07-27T22:03:34.051Z,46.78
2022-07-27T22:06:02.252Z,46.40
2022-07-27T22:08:30.592Z,47.34
2022-07-27T22:10:59.439Z,48.08
2022-07-27T22:13:28.135Z,49.08
2022-07-27T22:15:56.392Z,50.55
2022-07-27T22:18:24.744Z,51.57
2022-07-27T22:20:54.425Z,52.14
2022-07-27T22:23:22.869Z,52.71
2022-07-27T22:25:51.056Z,53.61
2022-07-27T22:28:19.240Z,54.11
2022-07-27T22:31:11.873Z,54.10
2022-07-27T22:33:37.427Z,54.49
2022-07-27T22:36:09.340Z,54.76
2022-07-27T22:38:37.705Z,54.96
2022-07-27T22:41:06.810Z,54.84
2022-07-27T22:43:35.284Z,54.96
2022-07-27T22:46:04.727Z,55.52
2022-07-27T22:48:33.084Z,55.37
2022-07-27T22:51:01.436Z,54.89
2022-07-27T22:53:31.267Z,55.18
2022-07-27T22:55:59.344Z,55.42
2022-07-27T22:58:28.153Z,55.43
2022-07-27T23:00:59.679Z,55.51
2022-07-27T23:03:28.285Z,55.54
2022-07-27T23:05:57.439Z,55.61
2022-07-27T23:08:25.735Z,56.36
2022-07-27T23:10:55.298Z,56.32
2022-07-27T23:13:23.923Z,55.92
2022-07-27T23:15:52.342Z,56.28
2022-07-27T23:18:22.954Z,56.17
2022-07-27T23:20:51.436Z,56.37
2022-07-27T23:23:19.868Z,56.82
2022-07-27T23:25:51.314Z,57.75
2022-07-27T23:28:21.337Z,57.69
2022-07-27T23:30:52.103Z,57.69
2022-07-27T23:33:21.184Z,57.74
2022-07-27T23:35:49.336Z,58.18
2022-07-27T23:38:18.174Z,58.18
2022-07-27T23:40:47.542Z,58.23
2022-07-27T23:43:15.969Z,58.48
2022-07-27T23:45:45.633Z,58.31
2022-07-27T23:48:13.901Z,58.15
2022-07-27T23:50:42.012Z,57.32
2022-07-27T23:53:10.353Z,57.49
2022-07-27T23:55:38.753Z,57.79
2022-07-27T23:58:07.320Z,58.26
